createdAt,value
2019-02-27T00:02:03.600Z,2.09
2019-02-27T00:04:34.826Z,2.03
2019-02-27T00:06:59.648Z,2.01
2019-02-27T00:09:26.693Z,1.99
2019-02-27T00:11:53.762Z,1.97
2019-02-27T00:14:20.844Z,1.94
2019-02-27T00:16:47.932Z,1.96
2019-02-27T00:19:14.991Z,1.95
2019-02-27T00:21:43.517Z,1.94
2019-02-27T00:24:11.038Z,1.95
2019-02-27T00:26:56.622Z,1.95
2019-02-27T00:29:23.731Z,1.96
2019-02-27T00:31:50.775Z,1.92
2019-02-27T00:34:17.823Z,1.88
2019-02-27T00:36:45.690Z,1.84
2019-02-27T00:39:12.848Z,1.83
2019-02-27T00:41:39.895Z,1.81
2019-02-27T00:44:06.959Z,1.78
2019-02-27T00:46:34.011Z,1.78
2019-02-27T00:49:01.140Z,1.79
2019-02-27T00:51:28.209Z,1.78
2019-02-27T00:53:55.965Z,1.77
2019-02-27T00:56:24.233Z,1.74
2019-02-27T00:58:51.282Z,1.69
2019-02-27T01:01:18.341Z,1.66
2019-02-27T01:04:03.943Z,1.64
2019-02-27T01:06:48.564Z,1.63
2019-02-27T01:09:15.635Z,1.64
2019-02-27T01:11:42.710Z,1.72
2019-02-27T01:14:09.791Z,1.73
2019-02-27T01:16:36.984Z,1.66
2019-02-27T01:19:04.797Z,1.58
2019-02-27T01:21:32.364Z,1.52
2019-02-27T01:23:59.459Z,1.52
2019-02-27T01:26:30.559Z,1.53
2019-02-27T01:28:55.495Z,1.54
2019-02-27T01:31:24.050Z,1.55
2019-02-27T01:33:51.548Z,1.52
2019-02-27T01:36:18.660Z,1.48
2019-02-27T01:38:45.700Z,1.48
2019-02-27T01:41:12.739Z,1.46
2019-02-27T01:43:41.045Z,1.42
2019-02-27T01:46:08.102Z,1.36
2019-02-27T01:48:35.152Z,1.36
2019-02-27T01:51:02.225Z,1.34
2019-02-27T01:53:29.340Z,1.33
2019-02-27T01:55:56.968Z,1.32
2019-02-27T01:58:26.424Z,1.34
2019-02-27T02:00:56.103Z,1.34
2019-02-27T02:03:22.440Z,1.31
2019-02-27T02:05:49.522Z,1.33
2019-02-27T02:08:16.566Z,1.34
2019-02-27T02:10:43.620Z,1.33
2019-02-27T02:13:16.711Z,1.31
2019-02-27T02:16:12.707Z,1.29
2019-02-27T02:19:08.054Z,1.27
2019-02-27T02:22:25.696Z,1.22
2019-02-27T02:25:43.625Z,1.20
2019-02-27T02:28:58.422Z,1.18
2019-02-27T02:32:19.603Z,1.12
2019-02-27T02:35:15.683Z,1.09
2019-02-27T02:38:45.323Z,1.08
2019-02-27T02:41:50.711Z,1.07
2019-02-27T02:44:41.880Z,1.02
2019-02-27T02:47:21.647Z,1.03
2019-02-27T02:50:25.803Z,1.04
2019-02-27T02:54:02.258Z,1.05
2019-02-27T02:57:01.552Z,1.03
2019-02-27T03:00:06.475Z,0.96
2019-02-27T03:03:01.957Z,0.94
2019-02-27T03:06:22.197Z,0.93
2019-02-27T03:09:31.729Z,0.93
2019-02-27T03:13:07.978Z,0.90
2019-02-27T03:16:18.519Z,0.87
2019-02-27T03:19:41.228Z,0.87
2019-02-27T03:22:49.082Z,0.84
2019-02-27T03:25:48.058Z,0.85
2019-02-27T03:28:45.994Z,0.82
2019-02-27T03:31:57.841Z,0.83
2019-02-27T03:34:55.742Z,0.83
2019-02-27T03:37:39.224Z,0.83
2019-02-27T03:40:33.061Z,0.84
2019-02-27T03:43:56.853Z,0.86
2019-02-27T03:46:45.210Z,0.86
2019-02-27T03:49:39.676Z,0.83
2019-02-27T03:52:46.701Z,0.78
2019-02-27T03:55:50.724Z,0.80
2019-02-27T03:58:50.091Z,0.77
2019-02-27T04:02:14.097Z,0.74
2019-02-27T04:05:28.376Z,0.72
2019-02-27T04:08:54.130Z,0.70
2019-02-27T04:11:21.302Z,0.68
2019-02-27T04:13:48.673Z,0.61
2019-02-27T04:16:15.786Z,0.61
2019-02-27T04:18:42.826Z,0.60
2019-02-27T04:22:10.469Z,0.60
2019-02-27T04:24:37.640Z,0.64
2019-02-27T04:27:04.689Z,0.66
2019-02-27T04:29:31.777Z,0.62
2019-02-27T04:31:58.843Z,0.62
2019-02-27T04:34:25.904Z,0.68
2019-02-27T04:36:52.981Z,0.71
2019-02-27T04:39:20.071Z,0.68
2019-02-27T04:41:49.542Z,0.63
2019-02-27T04:44:16.147Z,0.57
2019-02-27T04:46:43.203Z,0.46
2019-02-27T04:49:10.251Z,0.46
2019-02-27T04:51:37.617Z,0.45
2019-02-27T04:54:07.235Z,0.43
2019-02-27T04:56:33.633Z,0.42
2019-02-27T04:59:00.726Z,0.44
2019-02-27T05:01:27.771Z,0.52
2019-02-27T05:03:54.837Z,0.58
2019-02-27T05:06:21.903Z,0.60
2019-02-27T05:08:48.968Z,0.57
2019-02-27T05:11:16.024Z,0.55
2019-02-27T05:13:44.205Z,0.48
2019-02-27T05:16:13.922Z,0.46
2019-02-27T05:18:40.407Z,0.41
2019-02-27T05:21:07.739Z,0.40
2019-02-27T05:23:34.781Z,0.42
2019-02-27T05:26:01.863Z,0.44
2019-02-27T05:28:29.049Z,0.49
2019-02-27T05:30:56.099Z,0.49
2019-02-27T05:33:23.227Z,0.46
2019-02-27T05:35:50.333Z,0.49
2019-02-27T05:38:17.374Z,0.47
2019-02-27T05:40:44.466Z,0.43
2019-02-27T05:43:13.915Z,0.34
2019-02-27T05:45:40.492Z,0.32
2019-02-27T05:48:07.650Z,0.32
2019-02-27T05:50:34.909Z,0.28
2019-02-27T05:53:01.979Z,0.25
2019-02-27T05:55:29.035Z,0.25
2019-02-27T05:57:56.112Z,0.26
2019-02-27T06:00:23.288Z,0.25
2019-02-27T06:02:50.347Z,0.23
2019-02-27T06:05:17.433Z,0.24
2019-02-27T06:07:44.612Z,0.28
2019-02-27T06:10:12.871Z,0.28
2019-02-27T06:12:40.769Z,0.25
2019-02-27T06:15:11.262Z,0.22
2019-02-27T06:17:43.340Z,0.19
2019-02-27T06:20:07.909Z,0.19
2019-02-27T06:22:35.740Z,0.20
2019-02-27T06:25:03.120Z,0.23
2019-02-27T06:27:31.658Z,0.27
2019-02-27T06:29:59.767Z,0.28
2019-02-27T06:32:26.948Z,0.28
2019-02-27T06:34:54.065Z,0.28
2019-02-27T06:38:01.931Z,0.25
2019-02-27T06:40:28.984Z,0.25
2019-02-27T06:42:56.896Z,0.27
2019-02-27T06:45:24.090Z,0.30
2019-02-27T06:47:51.197Z,0.35
2019-02-27T06:50:18.267Z,0.37
2019-02-27T06:52:45.474Z,0.40
2019-02-27T06:55:13.296Z,0.43
2019-02-27T06:57:41.913Z,0.45
2019-02-27T07:00:12.442Z,0.49
2019-02-27T07:02:39.609Z,0.52
2019-02-27T07:05:07.518Z,0.54
2019-02-27T07:07:34.609Z,0.62
2019-02-27T07:10:04.132Z,0.68
2019-02-27T07:12:31.279Z,0.72
2019-02-27T07:14:58.366Z,0.78
2019-02-27T07:17:25.479Z,0.82
2019-02-27T07:19:52.549Z,0.92
2019-02-27T07:22:19.615Z,0.96
2019-02-27T07:24:46.680Z,1.03
2019-02-27T07:27:13.886Z,1.18
2019-02-27T07:29:42.830Z,1.27
2019-02-27T07:32:09.972Z,1.35
2019-02-27T07:34:37.034Z,1.41
2019-02-27T07:37:04.138Z,1.47
2019-02-27T07:39:32.784Z,1.57
2019-02-27T07:42:00.346Z,1.72
2019-02-27T07:44:27.420Z,1.89
2019-02-27T07:46:57.131Z,2.03
2019-02-27T07:49:23.434Z,2.22
2019-02-27T07:51:50.514Z,2.36
2019-02-27T07:54:17.558Z,2.55
2019-02-27T07:56:44.636Z,2.80
2019-02-27T07:59:11.748Z,3.01
2019-02-27T08:01:43.700Z,3.16
2019-02-27T08:04:07.877Z,3.31
2019-02-27T08:06:37.635Z,3.47
2019-02-27T08:09:05.114Z,3.67
2019-02-27T08:11:32.265Z,3.94
2019-02-27T08:14:00.708Z,4.13
2019-02-27T08:16:28.449Z,4.38
2019-02-27T08:18:55.514Z,4.53
2019-02-27T08:21:22.623Z,4.66
2019-02-27T08:23:49.695Z,4.79
2019-02-27T08:26:18.419Z,4.91
2019-02-27T08:28:45.666Z,5.00
2019-02-27T08:31:12.713Z,5.15
2019-02-27T08:33:39.761Z,5.35
2019-02-27T08:36:06.881Z,5.50
2019-02-27T08:38:34.004Z,5.64
2019-02-27T08:41:01.155Z,5.75
2019-02-27T08:43:30.363Z,5.86
2019-02-27T08:45:57.216Z,5.96
2019-02-27T08:48:24.275Z,6.13
2019-02-27T08:50:51.375Z,6.34
2019-02-27T08:53:18.562Z,6.45
2019-02-27T08:55:45.912Z,6.54
2019-02-27T08:58:13.034Z,6.61
2019-02-27T09:00:40.472Z,6.69
2019-02-27T09:03:07.552Z,6.86
2019-02-27T09:05:34.679Z,7.13
2019-02-27T09:08:01.745Z,7.23
2019-02-27T09:10:30.616Z,7.39
2019-02-27T09:13:05.219Z,7.53
2019-02-27T09:15:26.870Z,7.58
2019-02-27T09:17:53.926Z,7.71
2019-02-27T09:20:21.068Z,7.79
2019-02-27T09:22:48.213Z,8.10
2019-02-27T09:25:15.810Z,8.31
2019-02-27T09:27:42.924Z,8.59
2019-02-27T09:30:11.702Z,8.78
2019-02-27T09:32:38.887Z,8.95
2019-02-27T09:35:06.983Z,9.05
2019-02-27T09:37:34.054Z,9.17
2019-02-27T09:40:04.750Z,9.33
2019-02-27T09:42:30.108Z,9.52
2019-02-27T09:44:57.300Z,9.62
2019-02-27T09:47:25.909Z,9.75
2019-02-27T09:49:53.365Z,9.86
2019-02-27T09:52:20.422Z,10.11
2019-02-27T09:54:47.601Z,10.22
2019-02-27T09:57:14.755Z,10.12
2019-02-27T09:59:41.832Z,9.98
2019-02-27T10:02:12.496Z,10.01
2019-02-27T10:04:39.518Z,10.05
2019-02-27T10:07:06.589Z,10.08
2019-02-27T10:09:35.449Z,10.16
2019-02-27T10:12:03.685Z,10.31
2019-02-27T10:14:30.785Z,10.49
2019-02-27T10:16:57.881Z,10.75
2019-02-27T10:19:26.860Z,10.82
2019-02-27T10:21:54.069Z,11.01
2019-02-27T10:24:21.124Z,11.04
2019-02-27T10:26:48.208Z,11.09
2019-02-27T10:29:15.258Z,11.02
2019-02-27T10:31:42.299Z,11.03
2019-02-27T10:34:09.390Z,11.04
2019-02-27T10:36:39.039Z,11.16
2019-02-27T10:39:06.162Z,11.28
2019-02-27T10:41:33.268Z,11.63
2019-02-27T10:44:00.301Z,12.04
2019-02-27T10:46:27.463Z,12.31
2019-02-27T10:48:54.576Z,12.66
2019-02-27T10:51:21.682Z,12.92
2019-02-27T10:53:50.332Z,12.90
2019-02-27T10:56:17.547Z,13.11
2019-02-27T10:58:47.669Z,13.37
2019-02-27T11:01:14.554Z,13.54
2019-02-27T11:03:41.807Z,13.76
2019-02-27T11:06:08.917Z,14.04
2019-02-27T11:08:35.994Z,14.29
2019-02-27T11:11:03.278Z,14.38
2019-02-27T11:13:30.323Z,14.49
2019-02-27T11:15:57.429Z,14.59
2019-02-27T11:18:24.557Z,14.63
2019-02-27T11:24:32.473Z,14.54
2019-02-27T11:26:59.515Z,14.68
2019-02-27T11:29:26.560Z,14.73
2019-02-27T11:31:53.697Z,14.88
2019-02-27T11:34:20.737Z,15.03
2019-02-27T11:36:47.800Z,15.23
2019-02-27T11:39:15.166Z,15.38
2019-02-27T11:41:42.230Z,15.51
2019-02-27T11:44:14.155Z,15.63
2019-02-27T11:46:38.974Z,15.75
2019-02-27T11:49:07.240Z,15.84
2019-02-27T11:51:34.443Z,16.00
2019-02-27T11:54:01.454Z,16.13
2019-02-27T11:56:28.509Z,16.26
2019-02-27T11:58:55.644Z,16.33
2019-02-27T12:01:22.862Z,16.49
2019-02-27T12:03:49.917Z,16.63
2019-02-27T12:06:17.141Z,16.77
2019-02-27T12:08:44.341Z,16.93
2019-02-27T12:11:13.279Z,17.00
2019-02-27T12:13:40.586Z,17.12
2019-02-27T12:16:07.818Z,17.33
2019-02-27T12:18:35.244Z,17.42
2019-02-27T12:21:02.322Z,17.53
2019-02-27T12:23:29.372Z,17.56
2019-02-27T12:25:56.498Z,17.61
2019-02-27T12:28:26.563Z,17.70
2019-02-27T12:30:53.656Z,17.76
2019-02-27T12:33:20.722Z,17.82
2019-02-27T12:35:47.855Z,17.93
2019-02-27T12:38:14.959Z,18.11
2019-02-27T12:40:41.989Z,18.22
2019-02-27T12:43:09.057Z,18.30
2019-02-27T12:45:36.133Z,18.40
2019-02-27T12:48:03.205Z,18.31
2019-02-27T12:50:31.352Z,18.08
2019-02-27T12:52:58.778Z,18.18
2019-02-27T12:55:25.865Z,18.63
2019-02-27T12:57:53.105Z,18.78
2019-02-27T13:00:25.568Z,18.74
2019-02-27T13:02:52.707Z,18.83
2019-02-27T13:05:19.899Z,18.86
2019-02-27T13:07:47.028Z,19.08
2019-02-27T13:10:15.949Z,19.12
2019-02-27T13:12:43.087Z,19.28
2019-02-27T13:15:11.648Z,19.71
2019-02-27T13:17:38.770Z,19.88
2019-02-27T13:20:11.725Z,19.98
2019-02-27T13:22:40.481Z,20.07
2019-02-27T13:25:07.658Z,20.33
2019-02-27T13:27:34.819Z,20.49
2019-02-27T13:30:08.845Z,20.68
2019-02-27T13:32:30.913Z,20.81
2019-02-27T13:34:59.114Z,20.97
2019-02-27T13:37:26.185Z,21.14
2019-02-27T13:39:53.300Z,21.31
2019-02-27T13:42:20.344Z,21.77
2019-02-27T13:44:47.485Z,22.05
2019-02-27T13:47:20.405Z,22.11
2019-02-27T13:49:48.138Z,22.23
2019-02-27T13:52:15.313Z,22.27
2019-02-27T13:54:42.510Z,22.17
2019-02-27T13:57:09.820Z,22.18
2019-02-27T13:59:36.871Z,22.28
2019-02-27T14:02:04.896Z,22.13
2019-02-27T14:04:32.062Z,21.89
2019-02-27T14:06:59.283Z,21.94
2019-02-27T14:09:26.363Z,22.12
2019-02-27T14:11:53.466Z,21.95
2019-02-27T14:14:20.504Z,21.83
2019-02-27T14:16:49.267Z,21.98
2019-02-27T14:19:16.492Z,21.83
2019-02-27T14:21:43.547Z,21.84
2019-02-27T14:24:10.617Z,21.94
2019-02-27T14:26:38.272Z,21.84
2019-02-27T14:29:06.785Z,21.81
2019-02-27T14:31:33.839Z,21.80
2019-02-27T14:34:01.048Z,21.60
2019-02-27T14:36:28.115Z,21.34
2019-02-27T14:38:56.494Z,21.18
2019-02-27T14:41:23.993Z,21.00
2019-02-27T14:43:51.118Z,20.84
2019-02-27T14:46:18.185Z,20.73
2019-02-27T14:48:45.233Z,20.75
2019-02-27T14:51:12.329Z,20.60
2019-02-27T14:53:39.552Z,20.55
2019-02-27T14:56:09.247Z,20.32
2019-02-27T14:58:35.716Z,20.31
2019-02-27T15:01:04.070Z,20.24
2019-02-27T15:03:31.158Z,20.14
2019-02-27T15:05:58.289Z,19.99
2019-02-27T15:08:26.029Z,19.95
2019-02-27T15:10:53.248Z,19.84
2019-02-27T15:13:20.407Z,19.84
2019-02-27T15:15:47.530Z,19.85
2019-02-27T15:18:14.683Z,19.79
2019-02-27T15:20:42.057Z,19.80
2019-02-27T15:23:09.124Z,19.68
2019-02-27T15:25:36.186Z,19.59
2019-02-27T15:28:03.341Z,19.58
2019-02-27T15:30:30.407Z,19.51
2019-02-27T15:32:57.783Z,19.50
2019-02-27T15:35:24.974Z,19.45
2019-02-27T15:37:52.241Z,19.44
2019-02-27T15:40:20.358Z,19.42
2019-02-27T15:42:47.867Z,19.30
2019-02-27T15:45:15.782Z,19.30
2019-02-27T15:47:42.844Z,19.29
2019-02-27T15:50:11.867Z,19.23
2019-02-27T15:52:40.691Z,19.19
2019-02-27T15:55:08.287Z,19.11
2019-02-27T15:57:35.372Z,19.01
2019-02-27T16:00:02.508Z,18.91
2019-02-27T16:02:29.599Z,18.91
2019-02-27T16:04:56.776Z,18.88
2019-02-27T16:07:23.942Z,18.80
2019-02-27T16:09:51.037Z,18.74
2019-02-27T16:12:19.911Z,18.65
2019-02-27T16:14:47.026Z,18.58
2019-02-27T16:17:15.843Z,18.49
2019-02-27T16:19:44.694Z,18.44
2019-02-27T16:22:12.080Z,18.33
2019-02-27T16:24:40.411Z,18.28
2019-02-27T16:27:08.731Z,18.12
2019-02-27T16:29:35.896Z,17.96
2019-02-27T16:32:03.034Z,17.73
2019-02-27T16:34:33.297Z,17.69
2019-02-27T16:36:59.226Z,17.66
2019-02-27T16:39:27.660Z,17.52
2019-02-27T16:42:13.811Z,17.33
2019-02-27T16:44:42.118Z,17.16
2019-02-27T16:47:09.236Z,17.03
2019-02-27T16:49:36.405Z,16.85
2019-02-27T16:52:07.806Z,16.72
2019-02-27T16:54:32.422Z,16.37
2019-02-27T16:56:59.493Z,15.67
2019-02-27T16:59:26.600Z,15.13
2019-02-27T17:01:53.775Z,14.74
2019-02-27T17:04:20.844Z,14.46
2019-02-27T17:06:49.205Z,14.23
2019-02-27T17:09:18.820Z,14.05
2019-02-27T17:11:45.969Z,13.84
2019-02-27T17:14:13.054Z,13.56
2019-02-27T17:16:44.508Z,13.24
2019-02-27T17:19:23.263Z,12.92
2019-02-27T17:21:50.390Z,12.60
2019-02-27T17:24:21.198Z,12.25
2019-02-27T17:26:47.639Z,11.99
2019-02-27T17:29:14.893Z,11.77
2019-02-27T17:31:49.036Z,11.52
2019-02-27T17:34:13.779Z,11.28
2019-02-27T17:36:41.603Z,11.06
2019-02-27T17:39:08.678Z,10.84
2019-02-27T17:41:35.791Z,10.68
2019-02-27T17:44:04.833Z,10.55
2019-02-27T17:46:31.921Z,10.38
2019-02-27T17:48:59.026Z,10.19
2019-02-27T17:51:26.067Z,10.04
2019-02-27T17:53:55.080Z,9.91
2019-02-27T17:56:22.218Z,9.75
2019-02-27T17:58:49.513Z,9.59
2019-02-27T18:01:24.886Z,9.39
2019-02-27T18:03:48.505Z,9.19
2019-02-27T18:06:15.850Z,8.96
2019-02-27T18:08:42.936Z,8.81
2019-02-27T18:11:12.305Z,8.76
2019-02-27T18:13:39.053Z,8.70
2019-02-27T18:16:06.202Z,8.66
2019-02-27T18:18:33.330Z,8.58
2019-02-27T18:21:00.544Z,8.49
2019-02-27T18:23:27.665Z,8.41
2019-02-27T18:25:54.787Z,8.27
2019-02-27T18:28:22.019Z,8.16
2019-02-27T18:30:52.893Z,8.05
2019-02-27T18:33:18.616Z,7.91
2019-02-27T18:35:45.889Z,7.77
2019-02-27T18:38:13.059Z,7.65
2019-02-27T18:40:42.711Z,7.59
2019-02-27T18:43:09.209Z,7.59
2019-02-27T18:45:48.161Z,7.53
2019-02-27T18:48:15.213Z,7.50
2019-02-27T18:50:42.551Z,7.40
2019-02-27T18:53:12.933Z,7.33
2019-02-27T18:55:38.643Z,7.23
2019-02-27T18:58:05.734Z,7.13
2019-02-27T19:00:33.432Z,7.05
2019-02-27T19:03:01.900Z,6.98
2019-02-27T19:05:29.089Z,6.91
2019-02-27T19:07:56.269Z,6.88
2019-02-27T19:10:23.599Z,6.82
2019-02-27T19:12:50.774Z,6.74
2019-02-27T19:15:18.984Z,6.69
2019-02-27T19:17:48.900Z,6.64
2019-02-27T19:20:23.614Z,6.60
2019-02-27T19:22:48.054Z,6.52
2019-02-27T19:25:15.256Z,6.46
2019-02-27T19:27:42.405Z,6.38
2019-02-27T19:30:12.150Z,6.31
2019-02-27T19:32:39.234Z,6.27
2019-02-27T19:35:06.518Z,6.18
2019-02-27T19:37:36.368Z,6.10
2019-02-27T19:40:03.359Z,6.04
2019-02-27T19:42:30.430Z,5.98
2019-02-27T19:45:03.747Z,5.94
2019-02-27T19:47:26.713Z,5.90
2019-02-27T19:49:53.797Z,5.86
2019-02-27T19:52:21.004Z,5.81
2019-02-27T19:54:51.749Z,5.83
2019-02-27T19:57:17.293Z,5.83
2019-02-27T19:59:44.401Z,5.84
2019-02-27T20:02:11.477Z,5.82
2019-02-27T20:04:42.913Z,5.75
2019-02-27T20:07:07.791Z,5.61
2019-02-27T20:09:35.939Z,5.55
2019-02-27T20:12:03.113Z,5.52
2019-02-27T20:14:30.322Z,5.45
2019-02-27T20:16:57.384Z,5.39
2019-02-27T20:19:28.244Z,5.36
2019-02-27T20:21:53.736Z,5.31
2019-02-27T20:24:21.026Z,5.26
2019-02-27T20:26:48.125Z,5.25
2019-02-27T20:29:15.366Z,5.17
2019-02-27T20:31:42.498Z,5.11
2019-02-27T20:34:11.551Z,5.04
2019-02-27T20:36:38.565Z,5.02
2019-02-27T20:39:06.731Z,4.99
2019-02-27T20:41:33.778Z,4.95
2019-02-27T20:44:03.507Z,4.90
2019-02-27T20:46:29.967Z,4.90
2019-02-27T20:48:57.440Z,4.89
2019-02-27T20:51:24.558Z,4.79
2019-02-27T20:53:55.119Z,4.76
2019-02-27T20:56:20.773Z,4.72
2019-02-27T21:02:38.714Z,4.59
2019-02-27T21:05:09.528Z,4.51
2019-02-27T21:07:36.557Z,4.46
2019-02-27T21:10:04.263Z,4.43
2019-02-27T21:12:31.425Z,4.39
2019-02-27T21:14:58.596Z,4.38
2019-02-27T21:17:25.860Z,4.35
2019-02-27T21:20:12.451Z,4.35
2019-02-27T21:22:39.598Z,4.34
2019-02-27T21:25:07.213Z,4.29
2019-02-27T21:27:34.277Z,4.26
2019-02-27T21:30:01.512Z,4.21
2019-02-27T21:33:08.244Z,4.18
2019-02-27T21:35:41.688Z,4.15
2019-02-27T21:38:09.490Z,4.10
2019-02-27T21:40:36.952Z,4.07
2019-02-27T21:43:04.196Z,4.02
2019-02-27T21:49:32.282Z,3.98
2019-02-27T21:51:59.819Z,3.97
2019-02-27T21:54:26.876Z,3.94
2019-02-27T21:56:55.149Z,3.93
2019-02-27T21:59:22.370Z,3.88
2019-02-27T22:01:49.433Z,3.84
2019-02-27T22:04:16.542Z,3.82
2019-02-27T22:06:43.596Z,3.82
2019-02-27T22:09:13.627Z,3.80
2019-02-27T22:12:01.210Z,3.82
2019-02-27T22:14:28.990Z,3.80
2019-02-27T22:16:57.893Z,3.77
2019-02-27T22:19:25.011Z,3.74
2019-02-27T22:21:52.073Z,3.70
2019-02-27T22:24:21.001Z,3.65
2019-02-27T22:26:48.428Z,3.63
2019-02-27T22:29:15.496Z,3.58
2019-02-27T22:31:57.963Z,3.57
2019-02-27T22:34:27.735Z,3.57
2019-02-27T22:36:54.091Z,3.54
2019-02-27T22:39:21.243Z,3.54
2019-02-27T22:41:48.305Z,3.52
2019-02-27T22:44:15.408Z,3.53
2019-02-27T22:46:44.426Z,3.50
2019-02-27T22:49:11.456Z,3.45
2019-02-27T22:51:38.530Z,3.44
2019-02-27T22:54:05.618Z,3.45
2019-02-27T22:56:32.680Z,3.44
2019-02-27T22:59:03.113Z,3.39
2019-02-27T23:01:39.584Z,3.34
2019-02-27T23:04:49.423Z,3.33
2019-02-27T23:07:20.545Z,3.29
2019-02-27T23:09:45.702Z,3.28
2019-02-27T23:12:13.056Z,3.31
2019-02-27T23:14:40.242Z,3.35
2019-02-27T23:17:07.301Z,3.43
2019-02-27T23:19:34.395Z,3.48
2019-02-27T23:22:01.509Z,3.45
2019-02-27T23:24:28.647Z,3.48
2019-02-27T23:26:55.744Z,3.58
2019-02-27T23:29:23.054Z,3.71
2019-02-27T23:31:50.206Z,3.74
2019-02-27T23:34:17.269Z,3.66
2019-02-27T23:36:44.484Z,3.73
2019-02-27T23:39:11.543Z,3.74
2019-02-27T23:41:38.592Z,3.90
2019-02-27T23:44:06.090Z,3.89
2019-02-27T23:46:33.277Z,3.96
2019-02-27T23:49:00.349Z,4.45
2019-02-27T23:51:27.422Z,4.94
2019-02-27T23:53:54.524Z,5.03
2019-02-27T23:56:21.623Z,4.96
2019-02-27T23:58:48.669Z,4.78
